sensor_id;sensor_type;location;lat;lon;timestamp;temperature;humidity
81222;DHT22;70691;52.492;13.420;2023-09-19T00:01:17;20.90;67.60
81222;DHT22;70691;52.492;13.420;2023-09-19T00:03:45;20.80;67.70
81222;DHT22;70691;52.492;13.420;2023-09-19T00:06:11;20.80;67.80
81222;DHT22;70691;52.492;13.420;2023-09-19T00:08:38;20.80;67.70
81222;DHT22;70691;52.492;13.420;2023-09-19T00:11:04;20.80;67.80
81222;DHT22;70691;52.492;13.420;2023-09-19T00:13:34;20.70;67.90
81222;DHT22;70691;52.492;13.420;2023-09-19T00:16:01;20.70;67.70
81222;DHT22;70691;52.492;13.420;2023-09-19T00:18:33;20.70;67.70
81222;DHT22;70691;52.492;13.420;2023-09-19T00:21:00;20.60;67.80
81222;DHT22;70691;52.492;13.420;2023-09-19T00:23:26;20.70;67.90
81222;DHT22;70691;52.492;13.420;2023-09-19T00:25:53;20.60;67.90
81222;DHT22;70691;52.492;13.420;2023-09-19T00:28:23;20.60;67.90
81222;DHT22;70691;52.492;13.420;2023-09-19T00:30:48;20.60;68.10
81222;DHT22;70691;52.492;13.420;2023-09-19T00:33:17;20.50;68.10
81222;DHT22;70691;52.492;13.420;2023-09-19T00:35:51;20.50;68.10
81222;DHT22;70691;52.492;13.420;2023-09-19T00:38:17;20.50;68.10
81222;DHT22;70691;52.492;13.420;2023-09-19T00:40:47;20.40;68.20
81222;DHT22;70691;52.492;13.420;2023-09-19T00:43:13;20.50;68.20
81222;DHT22;70691;52.492;13.420;2023-09-19T00:45:43;20.40;68.20
81222;DHT22;70691;52.492;13.420;2023-09-19T00:48:09;20.40;68.20
81222;DHT22;70691;52.492;13.420;2023-09-19T00:50:36;20.50;68.20
81222;DHT22;70691;52.492;13.420;2023-09-19T00:53:02;20.50;67.90
81222;DHT22;70691;52.492;13.420;2023-09-19T00:55:34;20.50;68.00
81222;DHT22;70691;52.492;13.420;2023-09-19T00:58:03;20.50;67.90
81222;DHT22;70691;52.492;13.420;2023-09-19T01:00:32;20.50;67.90
81222;DHT22;70691;52.492;13.420;2023-09-19T01:02:59;20.40;67.80
81222;DHT22;70691;52.492;13.420;2023-09-19T01:05:27;20.40;68.00
81222;DHT22;70691;52.492;13.420;2023-09-19T01:07:53;20.40;68.10
81222;DHT22;70691;52.492;13.420;2023-09-19T01:10:20;20.40;68.00
81222;DHT22;70691;52.492;13.420;2023-09-19T01:13:08;20.30;68.00
81222;DHT22;70691;52.492;13.420;2023-09-19T01:31:10;20.40;67.80
81222;DHT22;70691;52.492;13.420;2023-09-19T01:33:56;20.40;67.60
81222;DHT22;70691;52.492;13.420;2023-09-19T01:36:23;20.40;67.50
81222;DHT22;70691;52.492;13.420;2023-09-19T01:38:50;20.30;67.60
81222;DHT22;70691;52.492;13.420;2023-09-19T01:41:21;20.30;67.60
81222;DHT22;70691;52.492;13.420;2023-09-19T01:43:50;20.40;67.50
81222;DHT22;70691;52.492;13.420;2023-09-19T01:46:22;20.40;67.40
81222;DHT22;70691;52.492;13.420;2023-09-19T01:51:42;20.50;66.90
81222;DHT22;70691;52.492;13.420;2023-09-19T01:54:12;20.50;67.10
81222;DHT22;70691;52.492;13.420;2023-09-19T01:57:02;20.50;67.10
81222;DHT22;70691;52.492;13.420;2023-09-19T01:59:35;20.50;67.10
81222;DHT22;70691;52.492;13.420;2023-09-19T02:02:03;20.40;67.30
81222;DHT22;70691;52.492;13.420;2023-09-19T02:04:33;20.30;67.40
81222;DHT22;70691;52.492;13.420;2023-09-19T02:07:00;20.30;67.50
81222;DHT22;70691;52.492;13.420;2023-09-19T02:09:26;20.30;67.60
81222;DHT22;70691;52.492;13.420;2023-09-19T02:11:52;20.30;67.40
81222;DHT22;70691;52.492;13.420;2023-09-19T02:14:18;20.30;67.40
81222;DHT22;70691;52.492;13.420;2023-09-19T02:16:45;20.30;67.60
81222;DHT22;70691;52.492;13.420;2023-09-19T02:19:11;20.20;67.50
81222;DHT22;70691;52.492;13.420;2023-09-19T02:21:36;20.20;67.60
81222;DHT22;70691;52.492;13.420;2023-09-19T02:24:05;20.30;67.60
81222;DHT22;70691;52.492;13.420;2023-09-19T02:26:31;20.20;67.50
81222;DHT22;70691;52.492;13.420;2023-09-19T02:28:56;20.20;67.70
81222;DHT22;70691;52.492;13.420;2023-09-19T02:31:22;20.10;67.90
81222;DHT22;70691;52.492;13.420;2023-09-19T02:33:47;20.10;68.10
81222;DHT22;70691;52.492;13.420;2023-09-19T02:36:13;20.10;68.00
81222;DHT22;70691;52.492;13.420;2023-09-19T02:38:42;20.00;68.10
81222;DHT22;70691;52.492;13.420;2023-09-19T02:41:08;20.00;68.30
81222;DHT22;70691;52.492;13.420;2023-09-19T02:43:33;20.00;68.40
81222;DHT22;70691;52.492;13.420;2023-09-19T02:45:59;20.00;68.30
81222;DHT22;70691;52.492;13.420;2023-09-19T02:48:25;20.00;68.40
81222;DHT22;70691;52.492;13.420;2023-09-19T02:50:51;19.90;68.50
81222;DHT22;70691;52.492;13.420;2023-09-19T02:53:17;19.90;68.60
81222;DHT22;70691;52.492;13.420;2023-09-19T02:55:43;20.00;68.50
81222;DHT22;70691;52.492;13.420;2023-09-19T02:58:08;20.00;68.40
81222;DHT22;70691;52.492;13.420;2023-09-19T03:00:36;20.00;68.30
81222;DHT22;70691;52.492;13.420;2023-09-19T03:03:02;20.10;68.00
81222;DHT22;70691;52.492;13.420;2023-09-19T03:05:28;20.10;67.90
81222;DHT22;70691;52.492;13.420;2023-09-19T03:07:56;20.10;67.90
81222;DHT22;70691;52.492;13.420;2023-09-19T03:10:23;20.10;67.80
81222;DHT22;70691;52.492;13.420;2023-09-19T03:12:50;20.20;68.70
81222;DHT22;70691;52.492;13.420;2023-09-19T03:15:16;20.20;67.50
81222;DHT22;70691;52.492;13.420;2023-09-19T03:17:44;20.20;67.30
81222;DHT22;70691;52.492;13.420;2023-09-19T03:20:10;20.20;67.30
81222;DHT22;70691;52.492;13.420;2023-09-19T03:22:38;20.20;67.10
81222;DHT22;70691;52.492;13.420;2023-09-19T03:25:06;20.30;66.70
81222;DHT22;70691;52.492;13.420;2023-09-19T03:27:36;20.30;66.50
81222;DHT22;70691;52.492;13.420;2023-09-19T03:30:02;20.30;66.20
81222;DHT22;70691;52.492;13.420;2023-09-19T03:32:32;20.30;65.80
81222;DHT22;70691;52.492;13.420;2023-09-19T03:34:57;20.20;65.90
81222;DHT22;70691;52.492;13.420;2023-09-19T03:37:23;20.20;65.90
81222;DHT22;70691;52.492;13.420;2023-09-19T03:39:49;20.20;65.70
81222;DHT22;70691;52.492;13.420;2023-09-19T03:42:14;20.20;65.80
81222;DHT22;70691;52.492;13.420;2023-09-19T03:44:40;20.20;65.40
81222;DHT22;70691;52.492;13.420;2023-09-19T03:47:06;20.20;65.20
81222;DHT22;70691;52.492;13.420;2023-09-19T03:49:32;20.20;65.30
81222;DHT22;70691;52.492;13.420;2023-09-19T03:51:59;20.10;65.10
81222;DHT22;70691;52.492;13.420;2023-09-19T03:54:25;20.10;65.40
81222;DHT22;70691;52.492;13.420;2023-09-19T03:56:50;20.10;64.90
81222;DHT22;70691;52.492;13.420;2023-09-19T03:59:16;20.10;64.80
81222;DHT22;70691;52.492;13.420;2023-09-19T04:01:43;20.10;64.60
81222;DHT22;70691;52.492;13.420;2023-09-19T04:04:09;20.10;64.70
81222;DHT22;70691;52.492;13.420;2023-09-19T04:06:35;20.10;64.80
81222;DHT22;70691;52.492;13.420;2023-09-19T04:09:01;20.00;64.50
81222;DHT22;70691;52.492;13.420;2023-09-19T04:11:29;20.00;64.20
81222;DHT22;70691;52.492;13.420;2023-09-19T04:13:55;20.10;63.40
81222;DHT22;70691;52.492;13.420;2023-09-19T04:16:21;20.10;62.90
81222;DHT22;70691;52.492;13.420;2023-09-19T04:18:47;20.10;62.20
81222;DHT22;70691;52.492;13.420;2023-09-19T04:21:13;20.10;61.40
81222;DHT22;70691;52.492;13.420;2023-09-19T04:23:38;20.10;61.70
81222;DHT22;70691;52.492;13.420;2023-09-19T04:26:04;20.10;61.20
81222;DHT22;70691;52.492;13.420;2023-09-19T04:28:30;20.10;60.70
81222;DHT22;70691;52.492;13.420;2023-09-19T04:30:57;20.10;60.50
81222;DHT22;70691;52.492;13.420;2023-09-19T04:33:25;20.00;60.60
81222;DHT22;70691;52.492;13.420;2023-09-19T04:35:50;20.00;60.50
81222;DHT22;70691;52.492;13.420;2023-09-19T04:38:20;19.90;60.60
81222;DHT22;70691;52.492;13.420;2023-09-19T04:40:46;19.90;60.50
81222;DHT22;70691;52.492;13.420;2023-09-19T04:43:12;19.90;60.70
81222;DHT22;70691;52.492;13.420;2023-09-19T04:45:39;19.80;60.70
81222;DHT22;70691;52.492;13.420;2023-09-19T04:48:08;19.90;60.80
81222;DHT22;70691;52.492;13.420;2023-09-19T04:50:37;19.80;60.90
81222;DHT22;70691;52.492;13.420;2023-09-19T04:53:04;19.90;60.60
81222;DHT22;70691;52.492;13.420;2023-09-19T04:55:29;19.90;60.50
81222;DHT22;70691;52.492;13.420;2023-09-19T04:57:56;19.80;60.60
81222;DHT22;70691;52.492;13.420;2023-09-19T05:00:23;19.80;60.60
81222;DHT22;70691;52.492;13.420;2023-09-19T05:02:56;19.80;60.60
81222;DHT22;70691;52.492;13.420;2023-09-19T05:05:23;19.80;60.40
81222;DHT22;70691;52.492;13.420;2023-09-19T05:07:49;19.80;60.30
81222;DHT22;70691;52.492;13.420;2023-09-19T05:10:15;19.80;60.40
81222;DHT22;70691;52.492;13.420;2023-09-19T05:12:44;19.80;60.10
81222;DHT22;70691;52.492;13.420;2023-09-19T05:15:14;19.80;59.80
81222;DHT22;70691;52.492;13.420;2023-09-19T05:17:48;19.80;59.70
81222;DHT22;70691;52.492;13.420;2023-09-19T05:20:14;19.80;59.70
81222;DHT22;70691;52.492;13.420;2023-09-19T05:22:43;19.80;59.80
81222;DHT22;70691;52.492;13.420;2023-09-19T05:25:10;19.80;59.50
81222;DHT22;70691;52.492;13.420;2023-09-19T05:27:36;19.80;59.40
81222;DHT22;70691;52.492;13.420;2023-09-19T05:30:02;19.80;59.60
81222;DHT22;70691;52.492;13.420;2023-09-19T05:32:28;19.80;59.60
81222;DHT22;70691;52.492;13.420;2023-09-19T05:34:53;19.70;59.70
81222;DHT22;70691;52.492;13.420;2023-09-19T05:37:20;19.70;59.70
81222;DHT22;70691;52.492;13.420;2023-09-19T05:39:46;19.70;59.90
81222;DHT22;70691;52.492;13.420;2023-09-19T05:42:12;19.70;59.70
81222;DHT22;70691;52.492;13.420;2023-09-19T05:44:37;19.70;59.80
81222;DHT22;70691;52.492;13.420;2023-09-19T05:47:04;19.70;59.70
81222;DHT22;70691;52.492;13.420;2023-09-19T05:49:29;19.70;59.80
81222;DHT22;70691;52.492;13.420;2023-09-19T05:51:55;19.70;60.10
81222;DHT22;70691;52.492;13.420;2023-09-19T05:54:22;19.70;60.00
81222;DHT22;70691;52.492;13.420;2023-09-19T05:56:47;19.80;59.60
81222;DHT22;70691;52.492;13.420;2023-09-19T05:59:14;19.80;59.50
81222;DHT22;70691;52.492;13.420;2023-09-19T06:01:43;19.80;59.50
81222;DHT22;70691;52.492;13.420;2023-09-19T06:04:08;19.80;59.40
81222;DHT22;70691;52.492;13.420;2023-09-19T06:06:34;19.80;59.20
81222;DHT22;70691;52.492;13.420;2023-09-19T06:09:04;19.80;58.90
81222;DHT22;70691;52.492;13.420;2023-09-19T06:11:31;19.90;58.80
81222;DHT22;70691;52.492;13.420;2023-09-19T06:14:03;19.90;58.80
81222;DHT22;70691;52.492;13.420;2023-09-19T06:16:29;19.90;58.70
81222;DHT22;70691;52.492;13.420;2023-09-19T06:18:55;19.90;58.60
81222;DHT22;70691;52.492;13.420;2023-09-19T06:21:24;20.00;58.30
81222;DHT22;70691;52.492;13.420;2023-09-19T06:23:52;20.00;58.20
81222;DHT22;70691;52.492;13.420;2023-09-19T06:26:18;20.00;58.50
81222;DHT22;70691;52.492;13.420;2023-09-19T06:28:44;20.00;58.20
81222;DHT22;70691;52.492;13.420;2023-09-19T06:31:10;20.10;57.90
81222;DHT22;70691;52.492;13.420;2023-09-19T06:33:39;20.10;57.60
81222;DHT22;70691;52.492;13.420;2023-09-19T06:36:05;20.20;57.40
81222;DHT22;70691;52.492;13.420;2023-09-19T06:38:32;20.20;57.60
81222;DHT22;70691;52.492;13.420;2023-09-19T06:40:59;20.20;57.40
81222;DHT22;70691;52.492;13.420;2023-09-19T06:43:26;20.30;57.20
81222;DHT22;70691;52.492;13.420;2023-09-19T06:45:53;20.30;57.10
81222;DHT22;70691;52.492;13.420;2023-09-19T06:48:20;20.50;56.70
81222;DHT22;70691;52.492;13.420;2023-09-19T06:50:46;20.60;56.40
81222;DHT22;70691;52.492;13.420;2023-09-19T06:53:13;20.70;55.90
81222;DHT22;70691;52.492;13.420;2023-09-19T06:55:39;20.80;55.80
81222;DHT22;70691;52.492;13.420;2023-09-19T06:58:05;20.80;55.70
81222;DHT22;70691;52.492;13.420;2023-09-19T07:00:31;20.90;55.60
81222;DHT22;70691;52.492;13.420;2023-09-19T07:05:30;21.10;55.00
81222;DHT22;70691;52.492;13.420;2023-09-19T07:07:59;21.20;54.30
81222;DHT22;70691;52.492;13.420;2023-09-19T07:10:27;21.40;53.80
81222;DHT22;70691;52.492;13.420;2023-09-19T07:12:56;21.50;53.30
81222;DHT22;70691;52.492;13.420;2023-09-19T07:15:23;21.60;52.70
81222;DHT22;70691;52.492;13.420;2023-09-19T07:17:53;21.80;52.20
81222;DHT22;70691;52.492;13.420;2023-09-19T07:20:20;21.90;51.70
81222;DHT22;70691;52.492;13.420;2023-09-19T07:22:46;22.00;50.70
81222;DHT22;70691;52.492;13.420;2023-09-19T07:25:13;22.10;50.40
81222;DHT22;70691;52.492;13.420;2023-09-19T07:27:43;22.20;50.00
81222;DHT22;70691;52.492;13.420;2023-09-19T07:30:10;22.20;49.80
81222;DHT22;70691;52.492;13.420;2023-09-19T07:32:37;22.30;49.40
81222;DHT22;70691;52.492;13.420;2023-09-19T07:35:04;22.30;49.10
81222;DHT22;70691;52.492;13.420;2023-09-19T07:37:31;22.20;49.00
81222;DHT22;70691;52.492;13.420;2023-09-19T07:39:59;22.30;48.80
81222;DHT22;70691;52.492;13.420;2023-09-19T07:42:26;22.30;49.20
81222;DHT22;70691;52.492;13.420;2023-09-19T07:44:52;22.30;49.30
81222;DHT22;70691;52.492;13.420;2023-09-19T07:47:19;22.30;49.30
81222;DHT22;70691;52.492;13.420;2023-09-19T07:49:49;22.20;49.30
81222;DHT22;70691;52.492;13.420;2023-09-19T07:52:21;22.30;48.90
81222;DHT22;70691;52.492;13.420;2023-09-19T07:54:48;22.40;48.40
81222;DHT22;70691;52.492;13.420;2023-09-19T07:57:15;22.30;47.70
81222;DHT22;70691;52.492;13.420;2023-09-19T07:59:41;22.30;47.10
81222;DHT22;70691;52.492;13.420;2023-09-19T08:02:08;22.30;46.90
81222;DHT22;70691;52.492;13.420;2023-09-19T08:04:35;22.30;47.00
81222;DHT22;70691;52.492;13.420;2023-09-19T08:07:01;22.40;46.60
81222;DHT22;70691;52.492;13.420;2023-09-19T08:09:29;22.30;46.70
81222;DHT22;70691;52.492;13.420;2023-09-19T08:11:59;22.20;47.40
81222;DHT22;70691;52.492;13.420;2023-09-19T08:14:29;22.20;47.10
81222;DHT22;70691;52.492;13.420;2023-09-19T08:16:58;22.20;47.40
81222;DHT22;70691;52.492;13.420;2023-09-19T08:19:24;22.30;46.60
81222;DHT22;70691;52.492;13.420;2023-09-19T08:21:55;22.40;45.90
81222;DHT22;70691;52.492;13.420;2023-09-19T08:24:24;22.40;45.30
81222;DHT22;70691;52.492;13.420;2023-09-19T08:26:52;22.40;45.70
81222;DHT22;70691;52.492;13.420;2023-09-19T08:29:20;22.30;45.50
81222;DHT22;70691;52.492;13.420;2023-09-19T08:31:45;22.10;46.10
81222;DHT22;70691;52.492;13.420;2023-09-19T08:34:13;22.00;45.90
81222;DHT22;70691;52.492;13.420;2023-09-19T08:36:39;22.00;46.40
81222;DHT22;70691;52.492;13.420;2023-09-19T08:39:06;22.00;46.80
81222;DHT22;70691;52.492;13.420;2023-09-19T08:41:32;22.00;46.30
81222;DHT22;70691;52.492;13.420;2023-09-19T08:44:01;22.00;46.00
81222;DHT22;70691;52.492;13.420;2023-09-19T08:46:30;21.90;46.00
81222;DHT22;70691;52.492;13.420;2023-09-19T08:49:03;22.00;46.00
81222;DHT22;70691;52.492;13.420;2023-09-19T08:51:42;21.90;46.50
81222;DHT22;70691;52.492;13.420;2023-09-19T08:54:37;21.80;46.80
81222;DHT22;70691;52.492;13.420;2023-09-19T08:57:07;21.80;47.10
81222;DHT22;70691;52.492;13.420;2023-09-19T08:59:38;21.80;46.90
81222;DHT22;70691;52.492;13.420;2023-09-19T09:02:11;21.90;46.90
81222;DHT22;70691;52.492;13.420;2023-09-19T09:04:41;22.00;46.60
81222;DHT22;70691;52.492;13.420;2023-09-19T09:07:13;22.00;46.10
81222;DHT22;70691;52.492;13.420;2023-09-19T09:09:39;22.00;46.10
81222;DHT22;70691;52.492;13.420;2023-09-19T09:12:12;22.10;45.70
81222;DHT22;70691;52.492;13.420;2023-09-19T09:14:45;22.30;44.80
81222;DHT22;70691;52.492;13.420;2023-09-19T09:17:15;22.40;44.40
81222;DHT22;70691;52.492;13.420;2023-09-19T09:19:46;22.50;44.40
81222;DHT22;70691;52.492;13.420;2023-09-19T09:22:13;22.50;45.50
81222;DHT22;70691;52.492;13.420;2023-09-19T09:24:52;22.60;43.80
81222;DHT22;70691;52.492;13.420;2023-09-19T09:27:20;22.70;43.40
81222;DHT22;70691;52.492;13.420;2023-09-19T09:29:49;22.90;42.80
81222;DHT22;70691;52.492;13.420;2023-09-19T09:32:26;22.90;42.20
81222;DHT22;70691;52.492;13.420;2023-09-19T09:34:57;23.00;41.60
81222;DHT22;70691;52.492;13.420;2023-09-19T09:37:24;23.00;41.70
81222;DHT22;70691;52.492;13.420;2023-09-19T09:39:59;23.00;42.00
81222;DHT22;70691;52.492;13.420;2023-09-19T09:42:44;23.10;41.80
81222;DHT22;70691;52.492;13.420;2023-09-19T09:45:23;23.30;41.00
81222;DHT22;70691;52.492;13.420;2023-09-19T09:48:15;23.30;40.60
81222;DHT22;70691;52.492;13.420;2023-09-19T09:50:47;23.40;40.40
81222;DHT22;70691;52.492;13.420;2023-09-19T09:56:05;23.50;39.00
81222;DHT22;70691;52.492;13.420;2023-09-19T09:58:53;23.50;39.20
81222;DHT22;70691;52.492;13.420;2023-09-19T10:01:21;23.30;39.50
81222;DHT22;70691;52.492;13.420;2023-09-19T10:03:57;23.20;39.70
81222;DHT22;70691;52.492;13.420;2023-09-19T10:06:23;23.30;39.70
81222;DHT22;70691;52.492;13.420;2023-09-19T10:12:03;23.50;37.50
81222;DHT22;70691;52.492;13.420;2023-09-19T10:14:33;23.60;36.50
81222;DHT22;70691;52.492;13.420;2023-09-19T10:17:00;23.70;36.80
81222;DHT22;70691;52.492;13.420;2023-09-19T10:19:36;23.60;37.10
81222;DHT22;70691;52.492;13.420;2023-09-19T10:22:02;23.60;37.20
81222;DHT22;70691;52.492;13.420;2023-09-19T10:24:30;23.70;37.20
81222;DHT22;70691;52.492;13.420;2023-09-19T10:26:59;23.70;36.90
81222;DHT22;70691;52.492;13.420;2023-09-19T10:29:28;23.70;37.20
81222;DHT22;70691;52.492;13.420;2023-09-19T10:31:57;23.80;37.30
81222;DHT22;70691;52.492;13.420;2023-09-19T10:34:25;23.80;36.70
81222;DHT22;70691;52.492;13.420;2023-09-19T10:36:52;23.80;36.50
81222;DHT22;70691;52.492;13.420;2023-09-19T10:39:19;23.70;36.40
81222;DHT22;70691;52.492;13.420;2023-09-19T10:41:51;23.80;35.70
81222;DHT22;70691;52.492;13.420;2023-09-19T10:44:24;23.70;35.80
81222;DHT22;70691;52.492;13.420;2023-09-19T10:46:52;23.60;35.70
81222;DHT22;70691;52.492;13.420;2023-09-19T10:49:19;23.60;36.00
81222;DHT22;70691;52.492;13.420;2023-09-19T10:51:46;23.30;36.70
81222;DHT22;70691;52.492;13.420;2023-09-19T10:54:17;23.20;36.50
81222;DHT22;70691;52.492;13.420;2023-09-19T10:56:49;23.10;36.80
81222;DHT22;70691;52.492;13.420;2023-09-19T10:59:19;23.10;35.00
81222;DHT22;70691;52.492;13.420;2023-09-19T11:01:51;23.20;35.00
81222;DHT22;70691;52.492;13.420;2023-09-19T11:04:33;23.30;34.70
81222;DHT22;70691;52.492;13.420;2023-09-19T11:07:07;23.30;34.20
81222;DHT22;70691;52.492;13.420;2023-09-19T11:09:50;23.20;34.80
81222;DHT22;70691;52.492;13.420;2023-09-19T11:15:02;23.20;34.60
81222;DHT22;70691;52.492;13.420;2023-09-19T11:17:36;23.20;34.40
81222;DHT22;70691;52.492;13.420;2023-09-19T11:25:43;23.50;33.70
81222;DHT22;70691;52.492;13.420;2023-09-19T11:28:28;23.40;34.00
81222;DHT22;70691;52.492;13.420;2023-09-19T11:30:54;23.60;33.50
81222;DHT22;70691;52.492;13.420;2023-09-19T11:33:32;23.70;32.80
81222;DHT22;70691;52.492;13.420;2023-09-19T11:36:07;23.70;32.60
81222;DHT22;70691;52.492;13.420;2023-09-19T11:43:48;23.70;32.80
81222;DHT22;70691;52.492;13.420;2023-09-19T11:46:16;23.80;33.10
81222;DHT22;70691;52.492;13.420;2023-09-19T11:48:48;23.80;32.70
81222;DHT22;70691;52.492;13.420;2023-09-19T11:51:19;23.70;33.40
81222;DHT22;70691;52.492;13.420;2023-09-19T11:53:51;23.70;33.70
81222;DHT22;70691;52.492;13.420;2023-09-19T11:56:18;23.70;33.90
81222;DHT22;70691;52.492;13.420;2023-09-19T11:58:46;23.80;33.90
81222;DHT22;70691;52.492;13.420;2023-09-19T12:01:15;23.80;33.10
81222;DHT22;70691;52.492;13.420;2023-09-19T12:03:47;24.00;32.50
81222;DHT22;70691;52.492;13.420;2023-09-19T12:06:16;24.10;32.00
81222;DHT22;70691;52.492;13.420;2023-09-19T12:08:43;24.10;31.90
81222;DHT22;70691;52.492;13.420;2023-09-19T12:11:15;24.10;31.80
81222;DHT22;70691;52.492;13.420;2023-09-19T12:13:45;24.20;32.10
81222;DHT22;70691;52.492;13.420;2023-09-19T12:16:19;24.20;32.10
81222;DHT22;70691;52.492;13.420;2023-09-19T12:18:49;24.30;31.60
81222;DHT22;70691;52.492;13.420;2023-09-19T12:26:39;24.50;30.90
81222;DHT22;70691;52.492;13.420;2023-09-19T12:29:16;24.40;31.20
81222;DHT22;70691;52.492;13.420;2023-09-19T12:34:28;24.50;30.30
81222;DHT22;70691;52.492;13.420;2023-09-19T12:37:06;24.60;30.40
81222;DHT22;70691;52.492;13.420;2023-09-19T12:39:41;24.50;30.40
81222;DHT22;70691;52.492;13.420;2023-09-19T12:42:11;24.50;30.10
81222;DHT22;70691;52.492;13.420;2023-09-19T12:44:44;24.50;29.90
81222;DHT22;70691;52.492;13.420;2023-09-19T12:47:12;24.60;30.00
81222;DHT22;70691;52.492;13.420;2023-09-19T12:52:37;24.80;30.00
81222;DHT22;70691;52.492;13.420;2023-09-19T12:55:03;24.70;30.40
81222;DHT22;70691;52.492;13.420;2023-09-19T12:57:30;24.80;30.20
81222;DHT22;70691;52.492;13.420;2023-09-19T13:00:03;24.80;29.90
81222;DHT22;70691;52.492;13.420;2023-09-19T13:02:37;24.80;29.90
81222;DHT22;70691;52.492;13.420;2023-09-19T13:05:03;24.80;29.90
81222;DHT22;70691;52.492;13.420;2023-09-19T13:07:45;24.70;30.20
81222;DHT22;70691;52.492;13.420;2023-09-19T13:10:15;24.80;30.10
81222;DHT22;70691;52.492;13.420;2023-09-19T13:12:43;24.70;30.30
81222;DHT22;70691;52.492;13.420;2023-09-19T13:15:14;24.70;30.50
81222;DHT22;70691;52.492;13.420;2023-09-19T13:17:48;24.60;30.80
81222;DHT22;70691;52.492;13.420;2023-09-19T13:20:25;24.50;31.10
81222;DHT22;70691;52.492;13.420;2023-09-19T13:22:54;24.60;30.20
81222;DHT22;70691;52.492;13.420;2023-09-19T13:25:24;24.50;30.20
81222;DHT22;70691;52.492;13.420;2023-09-19T13:27:52;24.50;30.10
81222;DHT22;70691;52.492;13.420;2023-09-19T13:30:20;24.50;30.00
81222;DHT22;70691;52.492;13.420;2023-09-19T13:32:46;24.40;30.60
81222;DHT22;70691;52.492;13.420;2023-09-19T13:35:13;24.40;30.30
81222;DHT22;70691;52.492;13.420;2023-09-19T13:37:40;24.40;30.50
81222;DHT22;70691;52.492;13.420;2023-09-19T13:40:09;24.40;30.70
81222;DHT22;70691;52.492;13.420;2023-09-19T13:42:35;24.40;30.50
81222;DHT22;70691;52.492;13.420;2023-09-19T13:45:02;24.50;30.70
81222;DHT22;70691;52.492;13.420;2023-09-19T13:47:30;24.40;30.50
81222;DHT22;70691;52.492;13.420;2023-09-19T13:49:56;24.30;30.80
81222;DHT22;70691;52.492;13.420;2023-09-19T13:52:22;24.20;31.40
81222;DHT22;70691;52.492;13.420;2023-09-19T13:54:52;24.20;31.10
81222;DHT22;70691;52.492;13.420;2023-09-19T13:57:18;24.20;31.20
81222;DHT22;70691;52.492;13.420;2023-09-19T13:59:44;24.20;31.10
81222;DHT22;70691;52.492;13.420;2023-09-19T14:02:10;24.20;30.80
81222;DHT22;70691;52.492;13.420;2023-09-19T14:04:35;24.20;31.20
81222;DHT22;70691;52.492;13.420;2023-09-19T14:07:02;24.20;31.30
81222;DHT22;70691;52.492;13.420;2023-09-19T14:09:29;24.20;31.30
81222;DHT22;70691;52.492;13.420;2023-09-19T14:11:55;24.20;31.00
81222;DHT22;70691;52.492;13.420;2023-09-19T14:14:21;24.20;31.20
81222;DHT22;70691;52.492;13.420;2023-09-19T14:16:47;24.30;31.30
81222;DHT22;70691;52.492;13.420;2023-09-19T14:19:13;24.30;31.20
81222;DHT22;70691;52.492;13.420;2023-09-19T14:21:42;24.40;31.20
81222;DHT22;70691;52.492;13.420;2023-09-19T14:24:07;24.30;31.20
81222;DHT22;70691;52.492;13.420;2023-09-19T14:26:38;24.20;31.40
81222;DHT22;70691;52.492;13.420;2023-09-19T14:29:05;24.30;31.40
81222;DHT22;70691;52.492;13.420;2023-09-19T14:31:33;24.20;31.20
81222;DHT22;70691;52.492;13.420;2023-09-19T14:33:59;24.10;31.60
81222;DHT22;70691;52.492;13.420;2023-09-19T14:36:25;24.20;31.70
81222;DHT22;70691;52.492;13.420;2023-09-19T14:38:52;24.20;31.50
81222;DHT22;70691;52.492;13.420;2023-09-19T14:41:23;24.20;31.70
81222;DHT22;70691;52.492;13.420;2023-09-19T14:43:51;24.10;32.10
81222;DHT22;70691;52.492;13.420;2023-09-19T14:46:17;24.10;32.30
81222;DHT22;70691;52.492;13.420;2023-09-19T14:48:44;24.10;32.10
81222;DHT22;70691;52.492;13.420;2023-09-19T14:51:13;24.10;32.10
81222;DHT22;70691;52.492;13.420;2023-09-19T14:53:40;24.20;31.40
81222;DHT22;70691;52.492;13.420;2023-09-19T14:56:08;24.20;31.70
81222;DHT22;70691;52.492;13.420;2023-09-19T14:58:34;24.10;31.50
81222;DHT22;70691;52.492;13.420;2023-09-19T15:01:09;24.00;31.20
81222;DHT22;70691;52.492;13.420;2023-09-19T15:03:39;24.10;31.10
81222;DHT22;70691;52.492;13.420;2023-09-19T15:06:07;24.00;31.00
81222;DHT22;70691;52.492;13.420;2023-09-19T15:08:35;24.00;31.20
81222;DHT22;70691;52.492;13.420;2023-09-19T15:11:01;23.90;31.60
81222;DHT22;70691;52.492;13.420;2023-09-19T15:13:31;23.80;31.70
81222;DHT22;70691;52.492;13.420;2023-09-19T15:16:03;23.80;31.70
81222;DHT22;70691;52.492;13.420;2023-09-19T15:18:30;23.70;32.20
81222;DHT22;70691;52.492;13.420;2023-09-19T15:20:57;23.70;32.00
81222;DHT22;70691;52.492;13.420;2023-09-19T15:23:22;23.70;31.70
81222;DHT22;70691;52.492;13.420;2023-09-19T15:25:51;23.70;32.00
81222;DHT22;70691;52.492;13.420;2023-09-19T15:28:18;23.70;31.80
81222;DHT22;70691;52.492;13.420;2023-09-19T15:30:46;23.60;31.70
81222;DHT22;70691;52.492;13.420;2023-09-19T15:33:12;23.60;32.00
81222;DHT22;70691;52.492;13.420;2023-09-19T15:35:38;23.50;32.20
81222;DHT22;70691;52.492;13.420;2023-09-19T15:38:04;23.50;32.50
81222;DHT22;70691;52.492;13.420;2023-09-19T15:40:29;23.50;32.30
81222;DHT22;70691;52.492;13.420;2023-09-19T15:42:55;23.50;32.50
81222;DHT22;70691;52.492;13.420;2023-09-19T15:45:25;23.40;32.60
81222;DHT22;70691;52.492;13.420;2023-09-19T15:47:51;23.50;32.80
81222;DHT22;70691;52.492;13.420;2023-09-19T15:50:17;23.40;32.80
81222;DHT22;70691;52.492;13.420;2023-09-19T15:52:43;23.30;33.40
81222;DHT22;70691;52.492;13.420;2023-09-19T15:55:08;23.30;33.60
81222;DHT22;70691;52.492;13.420;2023-09-19T15:57:38;23.30;33.40
81222;DHT22;70691;52.492;13.420;2023-09-19T16:00:04;23.40;33.70
81222;DHT22;70691;52.492;13.420;2023-09-19T16:02:36;23.40;33.50
81222;DHT22;70691;52.492;13.420;2023-09-19T16:05:02;23.40;33.60
81222;DHT22;70691;52.492;13.420;2023-09-19T16:07:31;23.30;34.00
81222;DHT22;70691;52.492;13.420;2023-09-19T16:09:57;23.20;34.30
81222;DHT22;70691;52.492;13.420;2023-09-19T16:12:24;23.20;34.40
81222;DHT22;70691;52.492;13.420;2023-09-19T16:14:50;23.10;34.40